Flight Track Log - Related Links

Times and Time Zones

All times are in EDT time to prevent confusion due to time zone crossing. See the AWE1454 flight status page for this flight to view local times or setup timezone preferences in your user account.

Time Position Orientation Groundspeed Altitude Reporting Facility
EDT Latitude Longitude Course Direction KTS MPH feet Rate Location/Type
Sat 12:56:26 PM 33.6333 -84.3833 48° Northeast 154 177 2,500  Level Atlanta TRACON
Sat 12:57:26 PM 33.6333 -84.3167 90° East 222 255 4,700 2,150 Climbing Atlanta TRACON
Sat 12:58:00 PM 33.8460 -84.1568 73° East  Level Estimated
Sat 12:58:26 PM 33.6333 -84.2333 90° East 281 323 6,800  Level Atlanta TRACON
Sat 12:59:00 PM 33.9156 -84.0661 54° Northeast  Level Estimated
Sat 12:59:41 PM 33.6336 -84.1161 90° East 315 362 9,800  Level Atlanta Center
Sat 01:00:00 PM 33.8948 -83.9452 102° East  Level FlightAware Approximate
Sat 01:00:41 PM 33.6878 -84.0289 53° Northeast 316 364 11,900  Level Atlanta Center
Sat 01:01:00 PM 33.9649 -83.8551 48° Northeast  Level Estimated
Sat 01:01:41 PM 33.7608 -83.9389 46° Northeast 334 384 14,700  Level Atlanta Center
Sat 01:02:41 PM 33.8336 -83.8411 48° Northeast 367 422 16,800 2,050 Climbing Atlanta Center
Sat 01:03:41 PM 33.9128 -83.7408 46° Northeast 395 455 18,800 2,000 Climbing Atlanta Center
Sat 01:04:41 PM 33.9856 -83.6278 52° Northeast 418 481 20,800 2,000 Climbing Atlanta Center
Sat 01:05:41 PM 34.0581 -83.5122 53° Northeast 438 504 22,800 1,950 Climbing Atlanta Center
Sat 01:06:41 PM 34.1328 -83.3914 53° Northeast 448 516 24,700 1,850 Climbing Atlanta Center
Sat 01:07:41 PM 34.2175 -83.2575 53° Northeast 448 516 26,500 1,800 Climbing Atlanta Center
Sat 01:08:41 PM 34.2939 -83.1336 53° Northeast 453 521 28,300 1,750 Climbing Atlanta Center
Sat 01:09:41 PM 34.3722 -83.0144 51° Northeast 453 521 30,000 1,650 Climbing Atlanta Center
Sat 01:10:41 PM 34.4442 -82.8953 54° Northeast 453 521 31,600 1,500 Climbing Atlanta Center
Sat 01:11:41 PM 34.5161 -82.7733 54° Northeast 453 521 33,000 1,300 Climbing Atlanta Center
Sat 01:12:41 PM 34.5900 -82.6561 53° Northeast 444 511 34,200 1,000 Climbing Atlanta Center
Sat 01:13:41 PM 34.6575 -82.5464 53° Northeast 438 504 35,000 1,100 Climbing Atlanta Center
Sat 01:14:41 PM 34.7269 -82.4314 54° Northeast 432 497 36,400 1,000 Climbing Atlanta Center
Sat 01:15:41 PM 34.7986 -82.3161 53° Northeast 432 497 37,000 300 Climbing Atlanta Center
Sat 01:16:41 PM 34.8739 -82.1931 53° Northeast 437 503 37,000  Level Atlanta Center
Sat 01:17:41 PM 34.9594 -82.0569 52° Northeast 447 514 37,000  Level Atlanta Center
Sat 01:18:41 PM 35.0367 -81.9231 55° Northeast 467 537 37,000  Level Atlanta Center
Sat 01:19:41 PM 35.1114 -81.7842 57° Northeast 478 550 37,000  Level Atlanta Center
Sat 01:20:41 PM 35.1858 -81.6422 57° Northeast 485 558 37,000  Level Atlanta Center
Sat 01:21:41 PM 35.2603 -81.5028 57° Northeast 490 564 37,000  Level Atlanta Center
Sat 01:22:41 PM 35.3303 -81.3631 58° Northeast 490 564 37,000  Level Atlanta Center
Sat 01:23:41 PM 35.4042 -81.2231 57° Northeast 490 564 37,000  Level Atlanta Center
Sat 01:24:41 PM 35.4742 -81.0831 58° Northeast 490 564 37,000  Level Atlanta Center
Sat 01:25:41 PM 35.5478 -80.9453 57° Northeast 484 557 37,000  Level Atlanta Center
Sat 01:26:41 PM 35.6153 -80.8150 57° Northeast 474 545 37,000  Level Atlanta Center
Sat 01:27:41 PM 35.6847 -80.6817 57° Northeast 462 532 37,000  Level Atlanta Center
Sat 01:28:41 PM 35.7519 -80.5486 58° Northeast 456 525 37,000  Level Atlanta Center
Sat 01:30:52 PM 35.8892 -80.2761 58° Northeast 445 512 37,000  Level Washington Center
Sat 01:31:53 PM 35.9589 -80.1442 57° Northeast 445 512 37,000  Level Washington Center
Sat 01:32:51 PM 36.0331 -80.0022 57° Northeast 445 512 37,000  Level Washington Center
Sat 01:33:51 PM 36.1089 -79.8703 55° Northeast 450 518 37,000  Level Washington Center
Sat 01:34:52 PM 36.1758 -79.7478 56° Northeast 461 531 37,000  Level Washington Center
Sat 01:35:52 PM 36.2578 -79.6025 55° Northeast 466 536 37,000  Level Washington Center
Sat 01:36:53 PM 36.3244 -79.4850 55° Northeast 466 536 37,000  Level Washington Center
Sat 01:37:51 PM 36.4083 -79.3342 55° Northeast 466 536 37,000  Level Washington Center
Sat 01:38:51 PM 36.4792 -79.2033 56° Northeast 471 542 37,000  Level Washington Center
Sat 01:39:52 PM 36.5583 -79.0725 53° Northeast 470 541 37,000  Level Washington Center
Sat 01:40:53 PM 36.6331 -78.9361 56° Northeast 470 541 37,000  Level Washington Center
Sat 01:41:51 PM 36.7014 -78.8069 57° Northeast 477 549 37,000 -458 Level Washington Center
Sat 01:42:51 PM 36.7886 -78.6600 53° Northeast 482 555 36,100 -1,041 Descending Washington Center
Sat 01:43:52 PM 36.8850 -78.5547 41° Northeast 454 522 34,900 -1,041 Descending Washington Center
Sat 01:44:52 PM 36.9856 -78.4597 37° Northeast 449 517 34,000 -454 Descending Washington Center
Sat 01:45:51 PM 37.0772 -78.3697 38° Northeast 460 529 34,000  Level Washington Center
Sat 01:46:51 PM 37.1797 -78.2717 37° Northeast 460 529 34,000  Level Washington Center
Sat 01:47:51 PM 37.2842 -78.1733 37° Northeast 460 529 34,000 -545 Level Washington Center
Sat 01:48:52 PM 37.3928 -78.0647 38° Northeast 455 524 32,900 -1,388 Descending Washington Center
Sat 01:49:52 PM 37.4928 -77.9658 38° Northeast 455 524 31,200 -934 Descending Washington Center
Sat 01:50:54 PM 37.5928 -77.8642 39° Northeast 455 524 31,000 -101 Descending Washington Center
Sat 01:51:51 PM 37.6947 -77.7650 38° Northeast 455 524 31,000  Level Washington Center
Sat 01:52:51 PM 37.7967 -77.6653 38° Northeast 455 524 31,000  Level Washington Center
Sat 01:53:52 PM 37.8964 -77.5628 39° Northeast 455 524 31,000  Level Washington Center
Sat 01:54:53 PM 37.9981 -77.4628 38° Northeast 455 524 31,000  Level Washington Center
Sat 01:55:53 PM 38.0892 -77.3753 37° Northeast 450 518 31,000  Level Washington Center
Sat 01:56:51 PM 38.1886 -77.2719 39° Northeast 450 518 31,000  Level Washington Center
Sat 01:57:51 PM 38.2817 -77.1761 39° Northeast 460 529 31,000  Level Washington Center
Sat 01:58:52 PM 38.3914 -77.0672 38° Northeast 460 529 31,000 -689 Level Washington Center
Sat 01:59:53 PM 38.4886 -76.9683 39° Northeast 455 524 29,600 -1,934 Descending Washington Center
Sat 02:00:53 PM 38.5856 -76.8692 39° Northeast 455 524 27,100 -2,492 Descending Washington Center
Sat 02:01:51 PM 38.6761 -76.7750 39° Northeast 442 509 24,700 -2,339 Descending Washington Center
Sat 02:02:51 PM 38.7275 -76.6375 64° Northeast 415 478 22,500 -1,983 Descending Washington Center
Sat 02:03:52 PM 38.7556 -76.4967 76° East 402 463 20,700 -1,721 Descending Washington Center
Sat 02:04:53 PM 38.7836 -76.3586 75° East 397 457 19,000 -1,563 Descending Washington Center
Sat 02:05:51 PM 38.8094 -76.2256 76° East 391 450 17,600 -1,664 Descending Washington Center
Sat 02:06:52 PM 38.8414 -76.0928 73° East 386 444 15,700 -1,289 Descending Washington Center
Sat 02:07:52 PM 38.8689 -75.9703 74° East 374 430 15,000 -356 Descending Washington Center
Sat 02:08:50 PM 38.8964 -75.8425 75° East 362 417 15,000 -202 Level Washington Center
Sat 02:09:51 PM 38.9717 -75.7597 41° Northeast 344 396 14,600 -1,380 Descending Washington Center
Sat 02:11:57 PM 39.1667 -75.6667 20° North 329 379 10,700 -1,484 Descending Philadelphia TRACON
Sat 02:12:57 PM 39.2500 -75.6667 360° North 267 307 10,000 -800 Descending Philadelphia TRACON
Sat 02:13:57 PM 39.3167 -75.6333 21° North 270 311 9,100 -1,273 Descending Philadelphia TRACON
Sat 02:15:09 PM 39.3833 -75.5667 38° Northeast 264 304 7,200 -1,000 Descending Philadelphia TRACON
Sat 02:16:03 PM 39.4000 -75.4833 75° East 279 321 7,000 -111 Descending Philadelphia TRACON
Sat 02:16:57 PM 39.4167 -75.4000 75° East 274 315 7,000  Level Philadelphia TRACON
Sat 02:18:03 PM 39.4333 -75.3000 78° East 220 253 7,000  Level Philadelphia TRACON
Sat 02:19:03 PM 39.4667 -75.2500 49° Northeast 223 257 7,000 -476 Level Philadelphia TRACON
Sat 02:20:09 PM 39.5333 -75.2667 349° North 226 260 6,000 -472 Descending Philadelphia TRACON
Sat 02:21:10 PM 39.6000 -75.3000 339° North 226 260 6,000  Level Philadelphia TRACON
Sat 02:22:09 PM 39.6500 -75.3333 333° Northwest 225 259 6,000  Level Philadelphia TRACON
Sat 02:23:09 PM 39.7000 -75.3667 333° Northwest 219 252 6,000  Level Philadelphia TRACON
Sat 02:23:57 PM 39.7333 -75.4000 322° Northwest 192 221 6,000 -600 Level Philadelphia TRACON
Sat 02:25:09 PM 39.7167 -75.4833 255° West 206 237 4,800 -945 Descending Philadelphia TRACON
Sat 02:26:04 PM 39.7667 -75.5000 346° North 193 222 4,000 -835 Descending Philadelphia TRACON
Sat 02:27:04 PM 39.8167 -75.4833 14° North 192 221 3,200 -908 Descending Philadelphia TRACON
Sat 02:28:03 PM 39.8333 -75.4167 72° East 189 217 2,200 -950 Descending Philadelphia TRACON
Sat 02:29:04 PM 39.8500 -75.3500 72° East 166 191 1,300 -885 Descending Philadelphia TRACON

Login

Don't have an account? Register now (free) for customized features, flight alerts, and more!